sensor_id;sensor_type;location;lat;lon;timestamp;temperature;humidity
5027;DHT22;2532;52.480;13.354;2023-01-19T00:00:37;2.00;90.50
5027;DHT22;2532;52.480;13.354;2023-01-19T00:03:05;2.00;90.50
5027;DHT22;2532;52.480;13.354;2023-01-19T00:05:40;1.90;90.40
5027;DHT22;2532;52.480;13.354;2023-01-19T00:08:07;1.80;90.50
5027;DHT22;2532;52.480;13.354;2023-01-19T00:10:40;1.80;90.50
5027;DHT22;2532;52.480;13.354;2023-01-19T00:13:07;1.70;90.60
5027;DHT22;2532;52.480;13.354;2023-01-19T00:15:34;1.70;90.70
5027;DHT22;2532;52.480;13.354;2023-01-19T00:18:02;1.70;90.80
5027;DHT22;2532;52.480;13.354;2023-01-19T00:20:30;1.60;90.90
5027;DHT22;2532;52.480;13.354;2023-01-19T00:23:00;1.60;91.00
5027;DHT22;2532;52.480;13.354;2023-01-19T00:25:27;1.50;91.00
5027;DHT22;2532;52.480;13.354;2023-01-19T00:27:54;1.50;91.10
5027;DHT22;2532;52.480;13.354;2023-01-19T00:30:21;1.50;91.10
5027;DHT22;2532;52.480;13.354;2023-01-19T00:32:48;1.40;91.10
5027;DHT22;2532;52.480;13.354;2023-01-19T00:35:15;1.30;91.40
5027;DHT22;2532;52.480;13.354;2023-01-19T00:37:43;1.30;91.20
5027;DHT22;2532;52.480;13.354;2023-01-19T00:40:11;1.30;91.40
5027;DHT22;2532;52.480;13.354;2023-01-19T00:42:38;1.30;91.40
5027;DHT22;2532;52.480;13.354;2023-01-19T00:45:11;1.20;91.30
5027;DHT22;2532;52.480;13.354;2023-01-19T00:47:38;1.20;91.30
5027;DHT22;2532;52.480;13.354;2023-01-19T00:50:05;1.20;91.40
5027;DHT22;2532;52.480;13.354;2023-01-19T00:52:33;1.20;91.50
5027;DHT22;2532;52.480;13.354;2023-01-19T00:55:01;1.20;91.50
5027;DHT22;2532;52.480;13.354;2023-01-19T00:57:28;1.20;91.50
5027;DHT22;2532;52.480;13.354;2023-01-19T00:59:55;1.20;91.40
5027;DHT22;2532;52.480;13.354;2023-01-19T01:02:22;1.20;91.30
5027;DHT22;2532;52.480;13.354;2023-01-19T01:04:49;1.30;91.60
5027;DHT22;2532;52.480;13.354;2023-01-19T01:07:19;1.30;91.30
5027;DHT22;2532;52.480;13.354;2023-01-19T01:09:46;1.20;91.10
5027;DHT22;2532;52.480;13.354;2023-01-19T01:12:15;1.20;91.10
5027;DHT22;2532;52.480;13.354;2023-01-19T01:14:42;1.20;91.10
5027;DHT22;2532;52.480;13.354;2023-01-19T01:17:09;1.20;91.10
5027;DHT22;2532;52.480;13.354;2023-01-19T01:19:38;1.20;91.10
5027;DHT22;2532;52.480;13.354;2023-01-19T01:22:06;1.10;91.20
5027;DHT22;2532;52.480;13.354;2023-01-19T01:24:33;1.10;91.20
5027;DHT22;2532;52.480;13.354;2023-01-19T01:27:00;1.10;91.30
5027;DHT22;2532;52.480;13.354;2023-01-19T01:29:28;1.10;91.30
5027;DHT22;2532;52.480;13.354;2023-01-19T01:31:55;1.10;91.30
5027;DHT22;2532;52.480;13.354;2023-01-19T01:34:24;1.10;91.30
5027;DHT22;2532;52.480;13.354;2023-01-19T01:36:51;1.10;91.30
5027;DHT22;2532;52.480;13.354;2023-01-19T01:39:19;1.00;91.20
5027;DHT22;2532;52.480;13.354;2023-01-19T01:41:48;1.00;91.20
5027;DHT22;2532;52.480;13.354;2023-01-19T01:44:48;0.90;91.20
5027;DHT22;2532;52.480;13.354;2023-01-19T01:47:18;0.90;91.40
5027;DHT22;2532;52.480;13.354;2023-01-19T01:49:48;0.80;91.40
5027;DHT22;2532;52.480;13.354;2023-01-19T01:52:17;0.80;91.50
5027;DHT22;2532;52.480;13.354;2023-01-19T01:54:44;0.70;91.60
5027;DHT22;2532;52.480;13.354;2023-01-19T01:57:12;0.70;91.60
5027;DHT22;2532;52.480;13.354;2023-01-19T01:59:41;0.70;91.70
5027;DHT22;2532;52.480;13.354;2023-01-19T02:02:14;0.60;91.70
5027;DHT22;2532;52.480;13.354;2023-01-19T02:05:04;0.60;91.70
5027;DHT22;2532;52.480;13.354;2023-01-19T02:07:35;0.60;91.70
5027;DHT22;2532;52.480;13.354;2023-01-19T02:10:21;0.60;91.70
5027;DHT22;2532;52.480;13.354;2023-01-19T02:13:05;0.50;91.70
5027;DHT22;2532;52.480;13.354;2023-01-19T02:15:46;0.50;91.70
5027;DHT22;2532;52.480;13.354;2023-01-19T02:18:15;0.50;91.70
5027;DHT22;2532;52.480;13.354;2023-01-19T02:20:55;0.50;91.70
5027;DHT22;2532;52.480;13.354;2023-01-19T02:23:37;0.50;91.60
5027;DHT22;2532;52.480;13.354;2023-01-19T02:26:06;0.50;91.60
5027;DHT22;2532;52.480;13.354;2023-01-19T02:28:36;0.40;91.50
5027;DHT22;2532;52.480;13.354;2023-01-19T02:31:05;0.40;91.60
5027;DHT22;2532;52.480;13.354;2023-01-19T02:33:32;0.40;91.60
5027;DHT22;2532;52.480;13.354;2023-01-19T02:35:59;0.40;91.70
5027;DHT22;2532;52.480;13.354;2023-01-19T02:38:27;0.40;91.70
5027;DHT22;2532;52.480;13.354;2023-01-19T02:40:59;0.40;91.70
5027;DHT22;2532;52.480;13.354;2023-01-19T02:43:28;0.40;91.70
5027;DHT22;2532;52.480;13.354;2023-01-19T02:45:56;0.40;91.80
5027;DHT22;2532;52.480;13.354;2023-01-19T02:48:23;0.40;91.70
5027;DHT22;2532;52.480;13.354;2023-01-19T02:50:52;0.40;91.70
5027;DHT22;2532;52.480;13.354;2023-01-19T02:53:48;0.40;91.60
5027;DHT22;2532;52.480;13.354;2023-01-19T02:56:37;0.40;91.60
5027;DHT22;2532;52.480;13.354;2023-01-19T02:59:11;0.40;91.60
5027;DHT22;2532;52.480;13.354;2023-01-19T03:01:49;0.40;91.60
5027;DHT22;2532;52.480;13.354;2023-01-19T03:04:26;0.40;91.50
5027;DHT22;2532;52.480;13.354;2023-01-19T03:06:59;0.30;91.40
5027;DHT22;2532;52.480;13.354;2023-01-19T03:09:33;0.30;91.40
5027;DHT22;2532;52.480;13.354;2023-01-19T03:12:08;0.30;91.40
5027;DHT22;2532;52.480;13.354;2023-01-19T03:14:41;0.20;91.40
5027;DHT22;2532;52.480;13.354;2023-01-19T03:17:09;0.20;91.50
5027;DHT22;2532;52.480;13.354;2023-01-19T03:19:41;0.20;91.60
5027;DHT22;2532;52.480;13.354;2023-01-19T03:22:11;0.20;91.60
5027;DHT22;2532;52.480;13.354;2023-01-19T03:24:41;0.20;91.70
5027;DHT22;2532;52.480;13.354;2023-01-19T03:27:13;0.10;91.60
5027;DHT22;2532;52.480;13.354;2023-01-19T03:29:44;0.10;91.70
5027;DHT22;2532;52.480;13.354;2023-01-19T03:32:15;0.10;91.70
5027;DHT22;2532;52.480;13.354;2023-01-19T03:34:44;0.10;91.70
5027;DHT22;2532;52.480;13.354;2023-01-19T03:37:13;0.10;91.70
5027;DHT22;2532;52.480;13.354;2023-01-19T03:39:41;0.10;91.60
5027;DHT22;2532;52.480;13.354;2023-01-19T03:42:12;0.20;91.70
5027;DHT22;2532;52.480;13.354;2023-01-19T03:44:41;0.10;91.60
5027;DHT22;2532;52.480;13.354;2023-01-19T03:47:10;0.10;91.60
5027;DHT22;2532;52.480;13.354;2023-01-19T03:49:40;0.00;91.60
5027;DHT22;2532;52.480;13.354;2023-01-19T03:52:08;0.00;91.70
5027;DHT22;2532;52.480;13.354;2023-01-19T03:54:36;0.00;91.70
5027;DHT22;2532;52.480;13.354;2023-01-19T03:57:03;0.00;91.80
5027;DHT22;2532;52.480;13.354;2023-01-19T03:59:31;0.00;91.80
5027;DHT22;2532;52.480;13.354;2023-01-19T04:01:59;0.00;91.70
5027;DHT22;2532;52.480;13.354;2023-01-19T04:04:26;0.00;91.70
5027;DHT22;2532;52.480;13.354;2023-01-19T04:06:52;0.00;91.60
5027;DHT22;2532;52.480;13.354;2023-01-19T04:09:19;-0.10;91.60
5027;DHT22;2532;52.480;13.354;2023-01-19T04:11:46;-0.10;91.60
5027;DHT22;2532;52.480;13.354;2023-01-19T04:14:13;-0.10;91.60
5027;DHT22;2532;52.480;13.354;2023-01-19T04:16:41;-0.10;91.60
5027;DHT22;2532;52.480;13.354;2023-01-19T04:19:08;-0.10;91.60
5027;DHT22;2532;52.480;13.354;2023-01-19T04:21:36;-0.20;91.60
5027;DHT22;2532;52.480;13.354;2023-01-19T04:24:03;-0.20;91.60
5027;DHT22;2532;52.480;13.354;2023-01-19T04:26:29;-0.20;91.70
5027;DHT22;2532;52.480;13.354;2023-01-19T04:28:57;-0.20;91.70
5027;DHT22;2532;52.480;13.354;2023-01-19T04:31:24;-0.20;91.60
5027;DHT22;2532;52.480;13.354;2023-01-19T04:33:52;-0.20;91.70
5027;DHT22;2532;52.480;13.354;2023-01-19T04:36:21;-0.20;91.70
5027;DHT22;2532;52.480;13.354;2023-01-19T04:38:48;-0.20;91.90
5027;DHT22;2532;52.480;13.354;2023-01-19T04:41:15;-0.20;91.60
5027;DHT22;2532;52.480;13.354;2023-01-19T04:43:41;-0.20;91.60
5027;DHT22;2532;52.480;13.354;2023-01-19T04:46:08;-0.30;91.50
5027;DHT22;2532;52.480;13.354;2023-01-19T04:48:35;-0.30;91.60
5027;DHT22;2532;52.480;13.354;2023-01-19T04:51:04;-0.30;91.60
5027;DHT22;2532;52.480;13.354;2023-01-19T04:53:31;-0.20;91.70
5027;DHT22;2532;52.480;13.354;2023-01-19T04:55:58;-0.30;91.60
5027;DHT22;2532;52.480;13.354;2023-01-19T04:58:25;-0.30;91.60
5027;DHT22;2532;52.480;13.354;2023-01-19T05:00:52;-0.30;91.60
5027;DHT22;2532;52.480;13.354;2023-01-19T05:03:19;-0.30;91.50
5027;DHT22;2532;52.480;13.354;2023-01-19T05:05:46;-0.30;91.50
5027;DHT22;2532;52.480;13.354;2023-01-19T05:08:14;-0.30;91.50
5027;DHT22;2532;52.480;13.354;2023-01-19T05:10:41;-0.30;91.50
5027;DHT22;2532;52.480;13.354;2023-01-19T05:13:08;-0.30;91.50
5027;DHT22;2532;52.480;13.354;2023-01-19T05:15:35;-0.40;91.40
5027;DHT22;2532;52.480;13.354;2023-01-19T05:18:02;-0.40;91.50
5027;DHT22;2532;52.480;13.354;2023-01-19T05:20:29;-0.40;91.40
5027;DHT22;2532;52.480;13.354;2023-01-19T05:22:56;-0.40;91.40
5027;DHT22;2532;52.480;13.354;2023-01-19T05:25:24;-0.40;91.40
5027;DHT22;2532;52.480;13.354;2023-01-19T05:27:51;-0.40;91.40
5027;DHT22;2532;52.480;13.354;2023-01-19T05:30:18;-0.40;91.80
5027;DHT22;2532;52.480;13.354;2023-01-19T05:32:45;-0.40;91.50
5027;DHT22;2532;52.480;13.354;2023-01-19T05:35:12;-0.40;91.40
5027;DHT22;2532;52.480;13.354;2023-01-19T05:37:41;-0.40;91.40
5027;DHT22;2532;52.480;13.354;2023-01-19T05:40:09;-0.50;91.40
5027;DHT22;2532;52.480;13.354;2023-01-19T05:42:38;-0.50;91.50
5027;DHT22;2532;52.480;13.354;2023-01-19T05:45:06;-0.50;91.50
5027;DHT22;2532;52.480;13.354;2023-01-19T05:47:33;-0.50;91.50
5027;DHT22;2532;52.480;13.354;2023-01-19T05:50:00;-0.50;91.40
5027;DHT22;2532;52.480;13.354;2023-01-19T05:52:27;-0.50;91.40
5027;DHT22;2532;52.480;13.354;2023-01-19T05:54:54;-0.50;91.60
5027;DHT22;2532;52.480;13.354;2023-01-19T05:57:21;-0.40;91.70
5027;DHT22;2532;52.480;13.354;2023-01-19T05:59:50;-0.40;91.60
5027;DHT22;2532;52.480;13.354;2023-01-19T06:02:17;-0.40;91.60
5027;DHT22;2532;52.480;13.354;2023-01-19T06:04:44;-0.40;91.50
5027;DHT22;2532;52.480;13.354;2023-01-19T06:07:10;-0.30;91.50
5027;DHT22;2532;52.480;13.354;2023-01-19T06:09:37;-0.30;91.30
5027;DHT22;2532;52.480;13.354;2023-01-19T06:12:05;-0.30;91.40
5027;DHT22;2532;52.480;13.354;2023-01-19T06:14:32;-0.30;91.40
5027;DHT22;2532;52.480;13.354;2023-01-19T06:17:02;-0.30;91.40
5027;DHT22;2532;52.480;13.354;2023-01-19T06:19:30;-0.30;91.30
5027;DHT22;2532;52.480;13.354;2023-01-19T06:21:57;-0.40;91.10
5027;DHT22;2532;52.480;13.354;2023-01-19T06:24:25;-0.30;91.10
5027;DHT22;2532;52.480;13.354;2023-01-19T06:26:52;-0.30;91.20
5027;DHT22;2532;52.480;13.354;2023-01-19T06:29:19;-0.30;91.20
5027;DHT22;2532;52.480;13.354;2023-01-19T06:31:47;-0.30;91.30
5027;DHT22;2532;52.480;13.354;2023-01-19T06:34:15;-0.30;91.10
5027;DHT22;2532;52.480;13.354;2023-01-19T06:36:43;-0.30;91.10
5027;DHT22;2532;52.480;13.354;2023-01-19T06:39:11;-0.30;91.20
5027;DHT22;2532;52.480;13.354;2023-01-19T06:41:38;-0.30;91.30
5027;DHT22;2532;52.480;13.354;2023-01-19T06:44:05;-0.20;91.40
5027;DHT22;2532;52.480;13.354;2023-01-19T06:46:32;-0.20;91.60
5027;DHT22;2532;52.480;13.354;2023-01-19T06:49:00;-0.10;91.60
5027;DHT22;2532;52.480;13.354;2023-01-19T06:51:28;-0.10;91.10
5027;DHT22;2532;52.480;13.354;2023-01-19T06:53:55;-0.10;90.80
5027;DHT22;2532;52.480;13.354;2023-01-19T06:56:22;-0.10;90.60
5027;DHT22;2532;52.480;13.354;2023-01-19T06:58:49;-0.20;90.50
5027;DHT22;2532;52.480;13.354;2023-01-19T07:01:17;-0.20;90.50
5027;DHT22;2532;52.480;13.354;2023-01-19T07:03:45;-0.20;90.60
5027;DHT22;2532;52.480;13.354;2023-01-19T07:06:12;-0.20;90.70
5027;DHT22;2532;52.480;13.354;2023-01-19T07:08:40;-0.20;90.60
5027;DHT22;2532;52.480;13.354;2023-01-19T07:11:09;-0.20;90.60
5027;DHT22;2532;52.480;13.354;2023-01-19T07:13:38;-0.30;90.50
5027;DHT22;2532;52.480;13.354;2023-01-19T07:16:06;-0.30;90.50
5027;DHT22;2532;52.480;13.354;2023-01-19T07:18:34;-0.30;90.60
5027;DHT22;2532;52.480;13.354;2023-01-19T07:21:01;-0.30;90.60
5027;DHT22;2532;52.480;13.354;2023-01-19T07:23:28;-0.30;90.60
5027;DHT22;2532;52.480;13.354;2023-01-19T07:25:57;-0.30;90.60
5027;DHT22;2532;52.480;13.354;2023-01-19T07:28:26;-0.30;90.60
5027;DHT22;2532;52.480;13.354;2023-01-19T07:30:53;-0.30;90.70
5027;DHT22;2532;52.480;13.354;2023-01-19T07:33:21;-0.30;90.80
5027;DHT22;2532;52.480;13.354;2023-01-19T07:35:50;-0.30;90.80
5027;DHT22;2532;52.480;13.354;2023-01-19T07:38:17;-0.30;90.90
5027;DHT22;2532;52.480;13.354;2023-01-19T07:40:45;-0.30;90.60
5027;DHT22;2532;52.480;13.354;2023-01-19T07:43:14;-0.30;90.50
5027;DHT22;2532;52.480;13.354;2023-01-19T07:45:41;-0.30;90.40
5027;DHT22;2532;52.480;13.354;2023-01-19T07:48:09;-0.30;90.30
5027;DHT22;2532;52.480;13.354;2023-01-19T07:50:36;-0.30;90.50
5027;DHT22;2532;52.480;13.354;2023-01-19T07:53:04;-0.40;90.40
5027;DHT22;2532;52.480;13.354;2023-01-19T07:55:31;-0.30;90.60
5027;DHT22;2532;52.480;13.354;2023-01-19T07:57:59;-0.30;90.60
5027;DHT22;2532;52.480;13.354;2023-01-19T08:00:29;-0.30;90.60
5027;DHT22;2532;52.480;13.354;2023-01-19T08:02:58;-0.20;90.60
5027;DHT22;2532;52.480;13.354;2023-01-19T08:05:26;-0.20;90.50
5027;DHT22;2532;52.480;13.354;2023-01-19T08:07:54;-0.20;90.50
5027;DHT22;2532;52.480;13.354;2023-01-19T08:10:24;-0.10;90.50
5027;DHT22;2532;52.480;13.354;2023-01-19T08:12:51;-0.10;90.40
5027;DHT22;2532;52.480;13.354;2023-01-19T08:15:19;-0.10;90.40
5027;DHT22;2532;52.480;13.354;2023-01-19T08:17:55;-0.10;90.20
5027;DHT22;2532;52.480;13.354;2023-01-19T08:20:23;-0.10;90.10
5027;DHT22;2532;52.480;13.354;2023-01-19T08:22:50;-0.10;90.20
5027;DHT22;2532;52.480;13.354;2023-01-19T08:25:24;0.00;90.30
5027;DHT22;2532;52.480;13.354;2023-01-19T08:27:54;0.00;90.40
5027;DHT22;2532;52.480;13.354;2023-01-19T08:30:21;0.00;90.40
5027;DHT22;2532;52.480;13.354;2023-01-19T08:32:51;0.10;90.30
5027;DHT22;2532;52.480;13.354;2023-01-19T08:35:20;0.10;90.10
5027;DHT22;2532;52.480;13.354;2023-01-19T08:37:47;0.10;90.00
5027;DHT22;2532;52.480;13.354;2023-01-19T08:40:14;0.10;90.10
5027;DHT22;2532;52.480;13.354;2023-01-19T08:42:42;0.10;90.00
5027;DHT22;2532;52.480;13.354;2023-01-19T08:45:12;0.10;90.00
5027;DHT22;2532;52.480;13.354;2023-01-19T08:47:39;0.20;90.00
5027;DHT22;2532;52.480;13.354;2023-01-19T08:50:07;0.20;90.10
5027;DHT22;2532;52.480;13.354;2023-01-19T08:52:36;0.20;90.00
5027;DHT22;2532;52.480;13.354;2023-01-19T08:55:04;0.20;89.90
5027;DHT22;2532;52.480;13.354;2023-01-19T08:57:31;0.20;89.90
5027;DHT22;2532;52.480;13.354;2023-01-19T08:59:58;0.30;89.80
5027;DHT22;2532;52.480;13.354;2023-01-19T09:02:25;0.30;89.80
5027;DHT22;2532;52.480;13.354;2023-01-19T09:04:52;0.20;89.90
5027;DHT22;2532;52.480;13.354;2023-01-19T09:07:19;0.20;90.00
5027;DHT22;2532;52.480;13.354;2023-01-19T09:09:47;0.30;90.20
5027;DHT22;2532;52.480;13.354;2023-01-19T09:12:14;0.30;90.20
5027;DHT22;2532;52.480;13.354;2023-01-19T09:14:41;0.30;90.20
5027;DHT22;2532;52.480;13.354;2023-01-19T09:17:08;0.40;90.10
5027;DHT22;2532;52.480;13.354;2023-01-19T09:19:35;0.40;90.10
5027;DHT22;2532;52.480;13.354;2023-01-19T09:22:02;0.50;90.20
5027;DHT22;2532;52.480;13.354;2023-01-19T09:24:30;0.50;90.10
5027;DHT22;2532;52.480;13.354;2023-01-19T09:27:00;0.60;90.10
5027;DHT22;2532;52.480;13.354;2023-01-19T09:29:27;0.60;90.10
5027;DHT22;2532;52.480;13.354;2023-01-19T09:31:54;0.70;90.20
5027;DHT22;2532;52.480;13.354;2023-01-19T09:34:22;0.70;90.30
5027;DHT22;2532;52.480;13.354;2023-01-19T09:36:50;0.80;90.20
5027;DHT22;2532;52.480;13.354;2023-01-19T09:39:17;0.80;90.30
5027;DHT22;2532;52.480;13.354;2023-01-19T09:41:50;0.90;90.40
5027;DHT22;2532;52.480;13.354;2023-01-19T09:44:27;1.00;90.30
5027;DHT22;2532;52.480;13.354;2023-01-19T09:46:55;1.10;90.20
5027;DHT22;2532;52.480;13.354;2023-01-19T09:49:29;1.10;90.40
5027;DHT22;2532;52.480;13.354;2023-01-19T09:51:57;1.20;90.00
5027;DHT22;2532;52.480;13.354;2023-01-19T09:54:29;1.20;90.00
5027;DHT22;2532;52.480;13.354;2023-01-19T09:57:00;1.30;90.10
5027;DHT22;2532;52.480;13.354;2023-01-19T09:59:30;1.30;90.10
5027;DHT22;2532;52.480;13.354;2023-01-19T10:02:13;1.40;90.00
5027;DHT22;2532;52.480;13.354;2023-01-19T10:04:51;1.40;89.90
5027;DHT22;2532;52.480;13.354;2023-01-19T10:07:32;1.50;90.00
5027;DHT22;2532;52.480;13.354;2023-01-19T10:10:16;1.50;89.90
5027;DHT22;2532;52.480;13.354;2023-01-19T10:12:54;1.60;89.70
5027;DHT22;2532;52.480;13.354;2023-01-19T10:15:41;1.70;89.70
5027;DHT22;2532;52.480;13.354;2023-01-19T10:18:18;1.70;89.50
5027;DHT22;2532;52.480;13.354;2023-01-19T10:20:48;1.80;89.20
5027;DHT22;2532;52.480;13.354;2023-01-19T10:23:34;1.80;90.20
5027;DHT22;2532;52.480;13.354;2023-01-19T10:26:08;1.80;89.90
5027;DHT22;2532;52.480;13.354;2023-01-19T10:28:36;1.90;89.60
5027;DHT22;2532;52.480;13.354;2023-01-19T10:31:06;2.00;89.70
5027;DHT22;2532;52.480;13.354;2023-01-19T10:33:34;2.00;89.40
5027;DHT22;2532;52.480;13.354;2023-01-19T10:36:14;2.10;89.30
5027;DHT22;2532;52.480;13.354;2023-01-19T10:38:42;2.10;89.40
5027;DHT22;2532;52.480;13.354;2023-01-19T10:41:13;2.20;89.20
5027;DHT22;2532;52.480;13.354;2023-01-19T10:43:42;2.20;88.70
5027;DHT22;2532;52.480;13.354;2023-01-19T10:46:21;2.30;89.20
5027;DHT22;2532;52.480;13.354;2023-01-19T10:48:59;2.30;88.70
5027;DHT22;2532;52.480;13.354;2023-01-19T10:51:28;2.40;88.30
5027;DHT22;2532;52.480;13.354;2023-01-19T10:53:57;2.40;88.30
5027;DHT22;2532;52.480;13.354;2023-01-19T10:56:28;2.40;88.10
5027;DHT22;2532;52.480;13.354;2023-01-19T10:58:59;2.50;88.20
5027;DHT22;2532;52.480;13.354;2023-01-19T11:01:29;2.50;88.10
5027;DHT22;2532;52.480;13.354;2023-01-19T11:04:18;2.50;88.10
5027;DHT22;2532;52.480;13.354;2023-01-19T11:06:46;2.60;88.10
5027;DHT22;2532;52.480;13.354;2023-01-19T11:09:18;2.70;88.20
5027;DHT22;2532;52.480;13.354;2023-01-19T11:11:48;2.70;88.20
5027;DHT22;2532;52.480;13.354;2023-01-19T11:14:18;2.70;88.30
5027;DHT22;2532;52.480;13.354;2023-01-19T11:16:49;2.80;88.30
5027;DHT22;2532;52.480;13.354;2023-01-19T11:19:20;2.80;87.80
5027;DHT22;2532;52.480;13.354;2023-01-19T11:21:50;2.80;87.80
5027;DHT22;2532;52.480;13.354;2023-01-19T11:24:17;2.90;88.00
5027;DHT22;2532;52.480;13.354;2023-01-19T11:26:47;2.90;87.80
5027;DHT22;2532;52.480;13.354;2023-01-19T11:29:17;3.00;88.00
5027;DHT22;2532;52.480;13.354;2023-01-19T11:31:48;3.00;88.40
5027;DHT22;2532;52.480;13.354;2023-01-19T11:34:24;3.00;87.60
5027;DHT22;2532;52.480;13.354;2023-01-19T11:36:56;3.00;87.80
5027;DHT22;2532;52.480;13.354;2023-01-19T11:39:25;3.00;88.20
5027;DHT22;2532;52.480;13.354;2023-01-19T11:41:55;3.10;88.10
5027;DHT22;2532;52.480;13.354;2023-01-19T11:44:25;3.10;87.80
5027;DHT22;2532;52.480;13.354;2023-01-19T11:46:56;3.20;88.00
5027;DHT22;2532;52.480;13.354;2023-01-19T11:49:32;3.20;87.50
5027;DHT22;2532;52.480;13.354;2023-01-19T11:52:05;3.30;87.80
5027;DHT22;2532;52.480;13.354;2023-01-19T11:54:44;3.40;88.40
5027;DHT22;2532;52.480;13.354;2023-01-19T11:57:14;3.40;87.60
5027;DHT22;2532;52.480;13.354;2023-01-19T11:59:42;3.50;87.40
5027;DHT22;2532;52.480;13.354;2023-01-19T12:02:17;3.60;87.40
5027;DHT22;2532;52.480;13.354;2023-01-19T12:04:47;3.60;87.00
5027;DHT22;2532;52.480;13.354;2023-01-19T12:07:21;3.60;87.20
5027;DHT22;2532;52.480;13.354;2023-01-19T12:09:52;3.60;86.90
5027;DHT22;2532;52.480;13.354;2023-01-19T12:12:26;3.70;87.00
5027;DHT22;2532;52.480;13.354;2023-01-19T12:14:58;3.70;87.10
5027;DHT22;2532;52.480;13.354;2023-01-19T12:17:30;3.70;87.10
5027;DHT22;2532;52.480;13.354;2023-01-19T12:20:04;3.80;86.70
5027;DHT22;2532;52.480;13.354;2023-01-19T12:22:36;3.90;86.30
5027;DHT22;2532;52.480;13.354;2023-01-19T12:25:13;3.90;86.60
5027;DHT22;2532;52.480;13.354;2023-01-19T12:27:42;3.90;86.10
5027;DHT22;2532;52.480;13.354;2023-01-19T12:30:16;3.90;86.10
5027;DHT22;2532;52.480;13.354;2023-01-19T12:32:45;4.00;86.10
5027;DHT22;2532;52.480;13.354;2023-01-19T12:41:22;4.00;85.50
5027;DHT22;2532;52.480;13.354;2023-01-19T12:44:20;4.00;85.70
5027;DHT22;2532;52.480;13.354;2023-01-19T12:46:51;4.00;86.00
5027;DHT22;2532;52.480;13.354;2023-01-19T12:49:30;4.00;86.10
5027;DHT22;2532;52.480;13.354;2023-01-19T12:52:25;4.10;85.70
5027;DHT22;2532;52.480;13.354;2023-01-19T12:54:59;4.10;85.50
5027;DHT22;2532;52.480;13.354;2023-01-19T12:57:31;4.20;85.20
5027;DHT22;2532;52.480;13.354;2023-01-19T13:00:00;4.10;85.10
5027;DHT22;2532;52.480;13.354;2023-01-19T13:02:46;4.20;85.20
5027;DHT22;2532;52.480;13.354;2023-01-19T13:05:24;4.20;85.80
5027;DHT22;2532;52.480;13.354;2023-01-19T13:08:28;4.20;86.70
5027;DHT22;2532;52.480;13.354;2023-01-19T13:11:14;4.30;86.80
5027;DHT22;2532;52.480;13.354;2023-01-19T13:13:43;4.40;87.00
5027;DHT22;2532;52.480;13.354;2023-01-19T13:19:16;4.40;87.30
5027;DHT22;2532;52.480;13.354;2023-01-19T13:21:46;4.50;87.10
5027;DHT22;2532;52.480;13.354;2023-01-19T13:24:15;4.50;87.30
5027;DHT22;2532;52.480;13.354;2023-01-19T13:26:53;4.50;87.40
5027;DHT22;2532;52.480;13.354;2023-01-19T13:29:27;4.50;87.40
5027;DHT22;2532;52.480;13.354;2023-01-19T13:31:56;4.50;87.40
5027;DHT22;2532;52.480;13.354;2023-01-19T13:34:29;4.50;87.60
5027;DHT22;2532;52.480;13.354;2023-01-19T13:36:58;4.50;87.80
5027;DHT22;2532;52.480;13.354;2023-01-19T13:39:28;4.50;87.60
5027;DHT22;2532;52.480;13.354;2023-01-19T13:41:59;4.50;87.60
5027;DHT22;2532;52.480;13.354;2023-01-19T13:44:28;4.60;87.80
5027;DHT22;2532;52.480;13.354;2023-01-19T13:46:57;4.60;87.60
5027;DHT22;2532;52.480;13.354;2023-01-19T13:49:29;4.60;87.30
5027;DHT22;2532;52.480;13.354;2023-01-19T13:52:11;4.60;87.30
5027;DHT22;2532;52.480;13.354;2023-01-19T13:54:46;4.50;87.40
5027;DHT22;2532;52.480;13.354;2023-01-19T13:57:22;4.50;87.30
5027;DHT22;2532;52.480;13.354;2023-01-19T14:00:04;4.50;87.20
5027;DHT22;2532;52.480;13.354;2023-01-19T14:02:31;4.50;87.40
5027;DHT22;2532;52.480;13.354;2023-01-19T14:05:03;4.40;87.50
5027;DHT22;2532;52.480;13.354;2023-01-19T14:07:39;4.40;87.70
5027;DHT22;2532;52.480;13.354;2023-01-19T14:10:10;4.30;87.70
5027;DHT22;2532;52.480;13.354;2023-01-19T14:12:38;4.30;87.80
5027;DHT22;2532;52.480;13.354;2023-01-19T14:15:10;4.30;87.80
5027;DHT22;2532;52.480;13.354;2023-01-19T14:17:39;4.30;87.90
5027;DHT22;2532;52.480;13.354;2023-01-19T14:20:27;4.20;88.10
5027;DHT22;2532;52.480;13.354;2023-01-19T14:22:56;4.20;88.40
5027;DHT22;2532;52.480;13.354;2023-01-19T14:25:27;4.10;88.50
5027;DHT22;2532;52.480;13.354;2023-01-19T14:28:26;4.10;88.50
5027;DHT22;2532;52.480;13.354;2023-01-19T14:30:54;4.10;88.50
5027;DHT22;2532;52.480;13.354;2023-01-19T14:33:40;4.10;88.60
5027;DHT22;2532;52.480;13.354;2023-01-19T14:36:24;4.00;88.50
5027;DHT22;2532;52.480;13.354;2023-01-19T14:38:55;4.00;89.10
5027;DHT22;2532;52.480;13.354;2023-01-19T14:41:26;4.00;90.00
5027;DHT22;2532;52.480;13.354;2023-01-19T14:43:53;4.00;90.10
5027;DHT22;2532;52.480;13.354;2023-01-19T14:46:22;4.00;90.10
5027;DHT22;2532;52.480;13.354;2023-01-19T14:49:17;4.00;90.00
5027;DHT22;2532;52.480;13.354;2023-01-19T14:51:47;4.00;89.40
5027;DHT22;2532;52.480;13.354;2023-01-19T14:54:17;3.90;89.20
5027;DHT22;2532;52.480;13.354;2023-01-19T14:56:44;3.90;89.60
5027;DHT22;2532;52.480;13.354;2023-01-19T14:59:12;3.80;89.60
5027;DHT22;2532;52.480;13.354;2023-01-19T15:01:39;3.80;89.50
5027;DHT22;2532;52.480;13.354;2023-01-19T15:04:09;3.80;89.50
5027;DHT22;2532;52.480;13.354;2023-01-19T15:06:38;3.70;89.50
5027;DHT22;2532;52.480;13.354;2023-01-19T15:09:07;3.70;89.50
5027;DHT22;2532;52.480;13.354;2023-01-19T15:11:37;3.70;89.60
5027;DHT22;2532;52.480;13.354;2023-01-19T15:14:03;3.70;90.10
5027;DHT22;2532;52.480;13.354;2023-01-19T15:16:32;3.70;90.40
5027;DHT22;2532;52.480;13.354;2023-01-19T15:19:05;3.70;90.50
5027;DHT22;2532;52.480;13.354;2023-01-19T15:21:34;3.70;90.30
5027;DHT22;2532;52.480;13.354;2023-01-19T15:24:08;3.80;90.10
5027;DHT22;2532;52.480;13.354;2023-01-19T15:26:38;3.80;90.20
5027;DHT22;2532;52.480;13.354;2023-01-19T15:29:19;3.80;90.10
5027;DHT22;2532;52.480;13.354;2023-01-19T15:31:47;3.80;89.90
5027;DHT22;2532;52.480;13.354;2023-01-19T15:34:14;3.80;89.80
5027;DHT22;2532;52.480;13.354;2023-01-19T15:36:41;3.80;89.90
5027;DHT22;2532;52.480;13.354;2023-01-19T15:39:09;3.80;90.00
5027;DHT22;2532;52.480;13.354;2023-01-19T15:41:38;3.80;89.90
5027;DHT22;2532;52.480;13.354;2023-01-19T15:44:06;3.80;89.90
5027;DHT22;2532;52.480;13.354;2023-01-19T15:46:35;3.70;89.80
5027;DHT22;2532;52.480;13.354;2023-01-19T15:49:05;3.70;89.90
5027;DHT22;2532;52.480;13.354;2023-01-19T15:51:32;3.70;90.00
5027;DHT22;2532;52.480;13.354;2023-01-19T15:53:59;3.70;90.00
5027;DHT22;2532;52.480;13.354;2023-01-19T15:56:27;3.70;90.00
5027;DHT22;2532;52.480;13.354;2023-01-19T15:58:56;3.60;90.00
5027;DHT22;2532;52.480;13.354;2023-01-19T16:01:26;3.60;90.10
5027;DHT22;2532;52.480;13.354;2023-01-19T16:03:57;3.50;90.10
5027;DHT22;2532;52.480;13.354;2023-01-19T16:06:24;3.50;90.20
5027;DHT22;2532;52.480;13.354;2023-01-19T16:08:51;3.50;90.10
5027;DHT22;2532;52.480;13.354;2023-01-19T16:11:24;3.50;90.20
5027;DHT22;2532;52.480;13.354;2023-01-19T16:13:51;3.50;90.20
5027;DHT22;2532;52.480;13.354;2023-01-19T16:16:21;3.50;90.20
5027;DHT22;2532;52.480;13.354;2023-01-19T16:18:49;3.40;90.20
5027;DHT22;2532;52.480;13.354;2023-01-19T16:21:17;3.40;90.20
5027;DHT22;2532;52.480;13.354;2023-01-19T16:23:44;3.40;90.20
5027;DHT22;2532;52.480;13.354;2023-01-19T16:26:23;3.40;90.20